»·PEaware :: DAL213 KSLC-KEGE

DAL213 :: KSLC-KEGE

FLIGHT INFORMATION

Flight Status: Arrived
Operator:
Delta Air Lines
More flights by this operator :: More flights under this callsign
Pilot: Nicolas L. (9332)
Aircraft: BOEING 737-800
(B738)
More flights by this aircraft type
Origin: KSLC Salt Lake City Intl
United States
Destination: KEGE Eagle Co Regl
United States
More flights between these airports :: More routes between these airports
Route: +LEETZ6 EKR RLG
File this flight plan on PilotEdge
Remarks: Live Streaming on Twith "DAL213" and YT
Altitude:
(Current/Filed)
29,000ft
Speed:
(Current/Filed)
400kts
Departed: 14-May-18 08:07 PM
Arrived: 14-May-18 08:57 PM
Distance/Time
Traveled:
242nm/0:50
Distance/Time
To Go:
Arrived

Flight Plot

Page will automatically refresh every two minutes.

Flight plan parsing failed; only flown route is shown


Map Options




Map Legend


Flown Route
Filed Route
Departure Airport
Arrival Airport
Navaid (VOR, NDB)
Fix

Horizontal Profiles

Position Reports

Time Latitude Longitude Heading Altitude Ground
Speed
14-May-18 19:55 40.789117 -111.978030 239 4235ft 0kts
14-May-18 19:56 40.789117 -111.978030 239 4235ft 0kts
14-May-18 19:57 40.789119 -111.978026 239 4235ft 0kts
14-May-18 19:58 40.789167 -111.977133 296 4235ft 2kts
14-May-18 19:59 40.789161 -111.977118 295 4235ft 0kts
14-May-18 20:00 40.789161 -111.977118 295 4235ft 0kts
14-May-18 20:01 40.792480 -111.977430 355 4235ft 29kts
14-May-18 20:02 40.799706 -111.978271 355 4235ft 22kts
14-May-18 20:03 40.806735 -111.979070 354 4235ft 20kts
14-May-18 20:04 40.806865 -111.976807 177 4235ft 0kts
14-May-18 20:05 40.806863 -111.976807 177 4235ft 0kts
14-May-18 20:06 40.806861 -111.976807 177 4235ft 0kts
14-May-18 20:07 40.802465 -111.976290 174 4236ft 94kts
14-May-18 20:08 40.763985 -111.991929 248 6362ft 197kts
14-May-18 20:09 40.760063 -112.073523 297 8676ft 266kts
14-May-18 20:10 40.814059 -112.143626 317 12128ft 276kts
14-May-18 20:11 40.872909 -112.212896 335 14876ft 302kts
14-May-18 20:12 40.936747 -112.157676 88 16836ft 336kts
14-May-18 20:13 40.915080 -112.035725 105 19814ft 347kts
14-May-18 20:14 40.890736 -111.909445 105 22420ft 363kts
14-May-18 20:15 40.865749 -111.777568 105 24766ft 378kts
14-May-18 20:16 40.839576 -111.639742 106 26753ft 394kts
14-May-18 20:17 40.812277 -111.496968 106 28500ft 409kts
14-May-18 20:18 40.781697 -111.347373 109 29177ft 437kts
14-May-18 20:19 40.746481 -111.192403 109 29183ft 441kts
14-May-18 20:20 40.711113 -111.037347 109 29190ft 443kts
14-May-18 20:21 40.675253 -110.881154 109 29201ft 446kts
14-May-18 20:22 40.639035 -110.724591 109 29189ft 449kts
14-May-18 20:23 40.602351 -110.567010 110 29206ft 452kts
14-May-18 20:24 40.565036 -110.407923 110 29177ft 456kts
14-May-18 20:25 40.528284 -110.247197 107 29167ft 463kts
14-May-18 20:26 40.497877 -110.082196 107 29174ft 466kts
14-May-18 20:27 40.466599 -109.915965 107 29133ft 469kts
14-May-18 20:28 40.434484 -109.748534 107 29118ft 480kts
14-May-18 20:29 40.401409 -109.577150 107 29141ft 485kts
14-May-18 20:30 40.368061 -109.406006 107 29101ft 484kts
14-May-18 20:31 40.334512 -109.235225 107 29116ft 484kts
14-May-18 20:32 40.300597 -109.064244 107 29121ft 484kts
14-May-18 20:33 40.266588 -108.894089 108 29117ft 484kts
14-May-18 20:34 40.232201 -108.723493 108 29138ft 486kts
14-May-18 20:35 40.197324 -108.551892 108 29124ft 488kts
14-May-18 20:36 40.162145 -108.380228 109 29128ft 490kts
14-May-18 20:37 40.126437 -108.207368 109 29129ft 493kts
14-May-18 20:38 40.090438 -108.034650 109 29143ft 494kts
14-May-18 20:39 40.061565 -107.859443 93 29173ft 502kts
14-May-18 20:40 40.057368 -107.676972 95 29162ft 501kts
14-May-18 20:41 40.050614 -107.495888 95 29172ft 499kts
14-May-18 20:42 40.043100 -107.315615 96 29203ft 497kts
14-May-18 20:43 40.035471 -107.139112 95 28530ft 478kts
14-May-18 20:44 40.027828 -106.968832 96 26174ft 462kts
14-May-18 20:45 40.020428 -106.808579 96 25279ft 413kts
14-May-18 20:46 40.013642 -106.665312 97 22915ft 376kts
14-May-18 20:47 39.980871 -106.549759 155 19769ft 335kts
14-May-18 20:48 39.895913 -106.533138 197 17242ft 285kts
14-May-18 20:49 39.831961 -106.581793 210 15768ft 251kts
14-May-18 20:50 39.769236 -106.616989 197 14760ft 243kts
14-May-18 20:51 39.705430 -106.642293 215 13414ft 241kts
14-May-18 20:52 39.675257 -106.719602 252 11993ft 238kts
14-May-18 20:53 39.659305 -106.800540 259 10394ft 230kts
14-May-18 20:54 39.649224 -106.873257 269 8819ft 185kts
14-May-18 20:55 39.658720 -106.931499 288 7639ft 162kts
14-May-18 20:56 39.639785 -106.941968 86 6764ft 146kts
14-May-18 20:57 39.643336 -106.910576 82 6524ft 21kts
14-May-18 20:58 39.642084 -106.911858 255 6524ft 8kts
14-May-18 20:59 39.641439 -106.912031 117 6524ft 0kts
14-May-18 21:00 39.641053 -106.911627 172 6524ft 0kts
14-May-18 21:01 39.641053 -106.911627 172 6524ft 0kts
14-May-18 21:02 39.641053 -106.911627 172 6524ft 0kts
14-May-18 21:03 39.641053 -106.911627 172 6524ft 0kts

Navigation Log

Ident Type
Flight plan parsing failed, navigation log unavailable